Preston, United Kingdom
Current Conditions -  °F | °C
As of 2:20 PM on Thursday 25 Dec 2014 (Local Time) from EGNH Reporting Station
Few Clouds Few Clouds  
Wind Chill: 40°   Ceiling: Unl
Heat Index: 46°   Visibility: 6mi
Dew Point: 39°   Wind: 16mph
Humidity: 76%   Direction: 290°WNW
Pressure: 30.36"   Gusts: NA
Location:  53.76°N, 2.71°W
Report Text: EGNH 251420Z 29014KT 9999 FEW015 FEW028TCU 08/04 Q1028
Loading
Personal Weather Stations






























Interactive Weather Map New forecast layout! Learn more

10-Day Weather Forecast

Advertisements
Track Severe Weather on mobile